sensor_id;sensor_type;location;lat;lon;timestamp;temperature;humidity
27384;DHT22;14851;51.166;4.760;2023-04-03T00:01:04;2.40;99.90
27384;DHT22;14851;51.166;4.760;2023-04-03T00:03:35;2.50;99.90
27384;DHT22;14851;51.166;4.760;2023-04-03T00:06:05;2.50;99.90
27384;DHT22;14851;51.166;4.760;2023-04-03T00:08:33;2.50;99.90
27384;DHT22;14851;51.166;4.760;2023-04-03T00:10:59;2.50;99.90
27384;DHT22;14851;51.166;4.760;2023-04-03T00:13:29;2.40;99.90
27384;DHT22;14851;51.166;4.760;2023-04-03T00:15:55;2.40;99.90
27384;DHT22;14851;51.166;4.760;2023-04-03T00:18:22;2.40;99.90
27384;DHT22;14851;51.166;4.760;2023-04-03T00:20:48;2.40;99.90
27384;DHT22;14851;51.166;4.760;2023-04-03T00:23:15;2.40;99.90
27384;DHT22;14851;51.166;4.760;2023-04-03T00:25:43;2.40;99.90
27384;DHT22;14851;51.166;4.760;2023-04-03T00:28:12;2.40;99.90
27384;DHT22;14851;51.166;4.760;2023-04-03T00:30:38;2.40;99.90
27384;DHT22;14851;51.166;4.760;2023-04-03T00:33:04;2.40;99.90
27384;DHT22;14851;51.166;4.760;2023-04-03T00:35:30;2.30;99.90
27384;DHT22;14851;51.166;4.760;2023-04-03T00:40:32;2.30;99.90
27384;DHT22;14851;51.166;4.760;2023-04-03T00:43:02;2.30;99.90
27384;DHT22;14851;51.166;4.760;2023-04-03T00:45:40;2.30;99.90
27384;DHT22;14851;51.166;4.760;2023-04-03T00:48:14;2.30;99.90
27384;DHT22;14851;51.166;4.760;2023-04-03T00:50:42;2.20;99.90
27384;DHT22;14851;51.166;4.760;2023-04-03T00:53:11;2.20;99.90
27384;DHT22;14851;51.166;4.760;2023-04-03T00:55:41;2.20;99.90
27384;DHT22;14851;51.166;4.760;2023-04-03T00:58:08;2.20;99.90
27384;DHT22;14851;51.166;4.760;2023-04-03T01:00:38;2.20;99.90
27384;DHT22;14851;51.166;4.760;2023-04-03T01:03:08;2.20;99.90
27384;DHT22;14851;51.166;4.760;2023-04-03T01:05:39;2.20;99.90
27384;DHT22;14851;51.166;4.760;2023-04-03T01:08:07;2.10;99.90
27384;DHT22;14851;51.166;4.760;2023-04-03T01:10:33;2.10;99.90
27384;DHT22;14851;51.166;4.760;2023-04-03T01:13:00;2.10;99.90
27384;DHT22;14851;51.166;4.760;2023-04-03T01:15:31;2.10;99.90
27384;DHT22;14851;51.166;4.760;2023-04-03T01:18:00;2.10;99.90
27384;DHT22;14851;51.166;4.760;2023-04-03T01:25:57;2.10;99.90
27384;DHT22;14851;51.166;4.760;2023-04-03T01:28:29;2.00;99.90
27384;DHT22;14851;51.166;4.760;2023-04-03T01:33:52;2.00;99.90
27384;DHT22;14851;51.166;4.760;2023-04-03T01:36:25;2.00;99.90
27384;DHT22;14851;51.166;4.760;2023-04-03T01:38:52;2.00;99.90
27384;DHT22;14851;51.166;4.760;2023-04-03T01:41:22;1.90;99.90
27384;DHT22;14851;51.166;4.760;2023-04-03T01:43:50;1.90;99.90
27384;DHT22;14851;51.166;4.760;2023-04-03T01:46:17;1.90;99.90
27384;DHT22;14851;51.166;4.760;2023-04-03T01:48:43;1.90;99.90
27384;DHT22;14851;51.166;4.760;2023-04-03T01:51:13;1.90;99.90
27384;DHT22;14851;51.166;4.760;2023-04-03T01:53:44;1.90;99.90
27384;DHT22;14851;51.166;4.760;2023-04-03T01:56:10;1.90;99.90
27384;DHT22;14851;51.166;4.760;2023-04-03T01:58:36;2.00;99.90
27384;DHT22;14851;51.166;4.760;2023-04-03T02:01:02;1.90;99.90
27384;DHT22;14851;51.166;4.760;2023-04-03T02:03:31;1.90;99.90
27384;DHT22;14851;51.166;4.760;2023-04-03T02:05:58;1.90;99.90
27384;DHT22;14851;51.166;4.760;2023-04-03T02:08:26;1.80;99.90
27384;DHT22;14851;51.166;4.760;2023-04-03T02:10:52;1.80;99.90
27384;DHT22;14851;51.166;4.760;2023-04-03T02:13:18;1.70;99.90
27384;DHT22;14851;51.166;4.760;2023-04-03T02:15:44;1.70;99.90
27384;DHT22;14851;51.166;4.760;2023-04-03T02:18:17;1.80;99.90
27384;DHT22;14851;51.166;4.760;2023-04-03T02:20:43;1.70;99.90
27384;DHT22;14851;51.166;4.760;2023-04-03T02:23:09;1.80;99.90
27384;DHT22;14851;51.166;4.760;2023-04-03T02:25:34;1.70;99.90
27384;DHT22;14851;51.166;4.760;2023-04-03T02:28:00;1.70;99.90
27384;DHT22;14851;51.166;4.760;2023-04-03T02:30:26;1.70;99.90
27384;DHT22;14851;51.166;4.760;2023-04-03T02:32:52;1.70;99.90
27384;DHT22;14851;51.166;4.760;2023-04-03T02:35:21;1.60;99.90
27384;DHT22;14851;51.166;4.760;2023-04-03T02:37:51;1.60;99.90
27384;DHT22;14851;51.166;4.760;2023-04-03T02:40:22;1.60;99.90
27384;DHT22;14851;51.166;4.760;2023-04-03T02:42:49;1.60;99.90
27384;DHT22;14851;51.166;4.760;2023-04-03T02:45:19;1.50;99.90
27384;DHT22;14851;51.166;4.760;2023-04-03T02:47:54;1.50;99.90
27384;DHT22;14851;51.166;4.760;2023-04-03T02:50:22;1.50;99.90
27384;DHT22;14851;51.166;4.760;2023-04-03T02:52:48;1.50;99.90
27384;DHT22;14851;51.166;4.760;2023-04-03T02:55:17;1.50;99.90
27384;DHT22;14851;51.166;4.760;2023-04-03T02:57:47;1.50;99.90
27384;DHT22;14851;51.166;4.760;2023-04-03T03:00:14;1.50;99.90
27384;DHT22;14851;51.166;4.760;2023-04-03T03:02:40;1.50;99.90
27384;DHT22;14851;51.166;4.760;2023-04-03T03:05:07;1.50;99.90
27384;DHT22;14851;51.166;4.760;2023-04-03T03:07:34;1.50;99.90
27384;DHT22;14851;51.166;4.760;2023-04-03T03:10:06;1.40;99.90
27384;DHT22;14851;51.166;4.760;2023-04-03T03:12:31;1.40;99.90
27384;DHT22;14851;51.166;4.760;2023-04-03T03:15:00;1.40;99.90
27384;DHT22;14851;51.166;4.760;2023-04-03T03:17:26;1.40;99.90
27384;DHT22;14851;51.166;4.760;2023-04-03T03:19:51;1.40;99.90
27384;DHT22;14851;51.166;4.760;2023-04-03T03:22:22;1.40;99.90
27384;DHT22;14851;51.166;4.760;2023-04-03T03:24:51;1.40;99.90
27384;DHT22;14851;51.166;4.760;2023-04-03T03:27:18;1.30;99.90
27384;DHT22;14851;51.166;4.760;2023-04-03T03:29:44;1.30;99.90
27384;DHT22;14851;51.166;4.760;2023-04-03T03:32:14;1.30;99.90
27384;DHT22;14851;51.166;4.760;2023-04-03T03:34:40;1.30;99.90
27384;DHT22;14851;51.166;4.760;2023-04-03T03:37:06;1.30;99.90
27384;DHT22;14851;51.166;4.760;2023-04-03T03:39:33;1.30;99.90
27384;DHT22;14851;51.166;4.760;2023-04-03T03:41:59;1.20;99.90
27384;DHT22;14851;51.166;4.760;2023-04-03T03:44:25;1.20;99.90
27384;DHT22;14851;51.166;4.760;2023-04-03T03:46:54;1.20;99.90
27384;DHT22;14851;51.166;4.760;2023-04-03T03:49:20;1.20;99.90
27384;DHT22;14851;51.166;4.760;2023-04-03T03:51:50;1.20;99.90
27384;DHT22;14851;51.166;4.760;2023-04-03T03:54:17;1.20;99.90
27384;DHT22;14851;51.166;4.760;2023-04-03T03:56:43;1.20;99.90
27384;DHT22;14851;51.166;4.760;2023-04-03T03:59:12;1.20;99.90
27384;DHT22;14851;51.166;4.760;2023-04-03T04:01:41;1.20;99.90
27384;DHT22;14851;51.166;4.760;2023-04-03T04:04:07;1.20;99.90
27384;DHT22;14851;51.166;4.760;2023-04-03T04:06:36;1.20;99.90
27384;DHT22;14851;51.166;4.760;2023-04-03T04:09:05;1.20;99.90
27384;DHT22;14851;51.166;4.760;2023-04-03T04:11:31;1.10;99.90
27384;DHT22;14851;51.166;4.760;2023-04-03T04:13:59;1.10;99.90
27384;DHT22;14851;51.166;4.760;2023-04-03T04:16:27;1.10;99.90
27384;DHT22;14851;51.166;4.760;2023-04-03T04:18:56;1.10;99.90
27384;DHT22;14851;51.166;4.760;2023-04-03T04:21:23;1.10;99.90
27384;DHT22;14851;51.166;4.760;2023-04-03T04:23:52;1.10;99.90
27384;DHT22;14851;51.166;4.760;2023-04-03T04:26:20;1.00;99.90
27384;DHT22;14851;51.166;4.760;2023-04-03T04:28:46;1.10;99.90
27384;DHT22;14851;51.166;4.760;2023-04-03T04:31:12;1.10;99.90
27384;DHT22;14851;51.166;4.760;2023-04-03T04:33:41;1.00;99.90
27384;DHT22;14851;51.166;4.760;2023-04-03T04:36:10;1.00;99.90
27384;DHT22;14851;51.166;4.760;2023-04-03T04:38:36;1.00;99.90
27384;DHT22;14851;51.166;4.760;2023-04-03T04:41:05;1.00;99.90
27384;DHT22;14851;51.166;4.760;2023-04-03T04:43:31;1.00;99.90
27384;DHT22;14851;51.166;4.760;2023-04-03T04:46:20;1.00;99.90
27384;DHT22;14851;51.166;4.760;2023-04-03T04:48:51;1.00;99.90
27384;DHT22;14851;51.166;4.760;2023-04-03T04:51:19;1.00;99.90
27384;DHT22;14851;51.166;4.760;2023-04-03T04:53:45;1.00;99.90
27384;DHT22;14851;51.166;4.760;2023-04-03T04:56:13;0.90;99.90
27384;DHT22;14851;51.166;4.760;2023-04-03T04:58:40;0.90;99.90
27384;DHT22;14851;51.166;4.760;2023-04-03T05:01:09;0.90;99.90
27384;DHT22;14851;51.166;4.760;2023-04-03T05:03:41;0.90;99.90
27384;DHT22;14851;51.166;4.760;2023-04-03T05:06:07;0.90;99.90
27384;DHT22;14851;51.166;4.760;2023-04-03T05:08:35;0.90;99.90
27384;DHT22;14851;51.166;4.760;2023-04-03T05:11:02;1.00;99.90
27384;DHT22;14851;51.166;4.760;2023-04-03T05:13:28;1.00;99.90
27384;DHT22;14851;51.166;4.760;2023-04-03T05:15:57;1.00;99.90
27384;DHT22;14851;51.166;4.760;2023-04-03T05:18:23;1.00;99.90
27384;DHT22;14851;51.166;4.760;2023-04-03T05:20:50;1.00;99.90
27384;DHT22;14851;51.166;4.760;2023-04-03T05:23:18;1.00;99.90
27384;DHT22;14851;51.166;4.760;2023-04-03T05:28:27;1.00;99.90
27384;DHT22;14851;51.166;4.760;2023-04-03T05:30:58;1.00;99.90
27384;DHT22;14851;51.166;4.760;2023-04-03T05:33:29;1.00;99.90
27384;DHT22;14851;51.166;4.760;2023-04-03T05:36:04;1.00;99.90
27384;DHT22;14851;51.166;4.760;2023-04-03T05:38:35;1.00;99.90
27384;DHT22;14851;51.166;4.760;2023-04-03T05:41:04;1.00;99.90
27384;DHT22;14851;51.166;4.760;2023-04-03T05:43:31;1.00;99.90
27384;DHT22;14851;51.166;4.760;2023-04-03T05:45:59;1.00;99.90
27384;DHT22;14851;51.166;4.760;2023-04-03T05:48:29;1.00;99.90
27384;DHT22;14851;51.166;4.760;2023-04-03T05:51:00;1.00;99.90
27384;DHT22;14851;51.166;4.760;2023-04-03T05:53:31;1.00;99.90
27384;DHT22;14851;51.166;4.760;2023-04-03T05:56:02;1.00;99.90
27384;DHT22;14851;51.166;4.760;2023-04-03T05:58:33;1.10;99.90
27384;DHT22;14851;51.166;4.760;2023-04-03T06:01:01;1.10;99.90
27384;DHT22;14851;51.166;4.760;2023-04-03T06:03:27;1.10;99.90
27384;DHT22;14851;51.166;4.760;2023-04-03T06:05:53;1.10;99.90
27384;DHT22;14851;51.166;4.760;2023-04-03T06:08:19;1.20;99.90
27384;DHT22;14851;51.166;4.760;2023-04-03T06:10:45;1.20;99.90
27384;DHT22;14851;51.166;4.760;2023-04-03T06:13:14;1.20;99.90
27384;DHT22;14851;51.166;4.760;2023-04-03T06:15:41;1.30;99.90
27384;DHT22;14851;51.166;4.760;2023-04-03T06:18:08;1.30;99.90
27384;DHT22;14851;51.166;4.760;2023-04-03T06:20:37;1.30;99.90
27384;DHT22;14851;51.166;4.760;2023-04-03T06:23:03;1.40;99.90
27384;DHT22;14851;51.166;4.760;2023-04-03T06:25:31;1.40;99.90
27384;DHT22;14851;51.166;4.760;2023-04-03T06:27:57;1.40;99.90
27384;DHT22;14851;51.166;4.760;2023-04-03T06:30:23;1.50;99.90
27384;DHT22;14851;51.166;4.760;2023-04-03T06:32:49;1.50;99.90
27384;DHT22;14851;51.166;4.760;2023-04-03T06:35:16;1.50;99.90
27384;DHT22;14851;51.166;4.760;2023-04-03T06:40:25;1.60;99.90
27384;DHT22;14851;51.166;4.760;2023-04-03T06:42:52;1.60;99.90
27384;DHT22;14851;51.166;4.760;2023-04-03T06:45:19;1.70;99.90
27384;DHT22;14851;51.166;4.760;2023-04-03T06:47:45;1.80;99.90
27384;DHT22;14851;51.166;4.760;2023-04-03T06:50:12;1.70;99.90
27384;DHT22;14851;51.166;4.760;2023-04-03T06:52:41;1.80;99.90
27384;DHT22;14851;51.166;4.760;2023-04-03T06:55:08;1.80;99.90
27384;DHT22;14851;51.166;4.760;2023-04-03T06:57:35;1.90;99.90
27384;DHT22;14851;51.166;4.760;2023-04-03T07:00:03;1.90;99.90
27384;DHT22;14851;51.166;4.760;2023-04-03T07:02:30;2.00;99.90
27384;DHT22;14851;51.166;4.760;2023-04-03T07:04:57;2.00;99.90
27384;DHT22;14851;51.166;4.760;2023-04-03T07:07:24;2.10;99.90
27384;DHT22;14851;51.166;4.760;2023-04-03T07:09:50;2.10;99.90
27384;DHT22;14851;51.166;4.760;2023-04-03T07:12:16;2.20;99.90
27384;DHT22;14851;51.166;4.760;2023-04-03T07:14:42;2.20;99.90
27384;DHT22;14851;51.166;4.760;2023-04-03T07:17:08;2.20;99.90
27384;DHT22;14851;51.166;4.760;2023-04-03T07:19:34;2.20;99.90
27384;DHT22;14851;51.166;4.760;2023-04-03T07:22:00;2.30;99.90
27384;DHT22;14851;51.166;4.760;2023-04-03T07:24:28;2.30;99.90
27384;DHT22;14851;51.166;4.760;2023-04-03T07:26:54;2.30;99.90
27384;DHT22;14851;51.166;4.760;2023-04-03T07:29:21;2.30;99.90
27384;DHT22;14851;51.166;4.760;2023-04-03T07:31:47;2.30;99.90
27384;DHT22;14851;51.166;4.760;2023-04-03T07:34:13;2.40;99.90
27384;DHT22;14851;51.166;4.760;2023-04-03T07:36:39;2.40;99.90
27384;DHT22;14851;51.166;4.760;2023-04-03T07:39:05;2.50;99.90
27384;DHT22;14851;51.166;4.760;2023-04-03T07:41:33;2.50;99.90
27384;DHT22;14851;51.166;4.760;2023-04-03T07:43:59;2.60;99.90
27384;DHT22;14851;51.166;4.760;2023-04-03T07:46:25;2.60;99.90
27384;DHT22;14851;51.166;4.760;2023-04-03T07:54:15;2.70;99.90
27384;DHT22;14851;51.166;4.760;2023-04-03T07:56:41;2.70;99.90
27384;DHT22;14851;51.166;4.760;2023-04-03T07:59:10;2.80;99.90
27384;DHT22;14851;51.166;4.760;2023-04-03T08:01:36;2.80;99.90
27384;DHT22;14851;51.166;4.760;2023-04-03T08:04:05;2.90;99.90
27384;DHT22;14851;51.166;4.760;2023-04-03T08:06:34;2.90;99.90
27384;DHT22;14851;51.166;4.760;2023-04-03T08:09:03;3.00;99.90
27384;DHT22;14851;51.166;4.760;2023-04-03T08:11:29;3.20;99.90
27384;DHT22;14851;51.166;4.760;2023-04-03T08:13:56;3.30;99.90
27384;DHT22;14851;51.166;4.760;2023-04-03T08:16:25;3.40;99.90
27384;DHT22;14851;51.166;4.760;2023-04-03T08:18:53;3.50;99.90
27384;DHT22;14851;51.166;4.760;2023-04-03T08:21:20;3.50;99.90
27384;DHT22;14851;51.166;4.760;2023-04-03T08:23:48;3.50;99.90
27384;DHT22;14851;51.166;4.760;2023-04-03T08:26:18;3.60;99.90
27384;DHT22;14851;51.166;4.760;2023-04-03T08:28:47;3.60;99.90
27384;DHT22;14851;51.166;4.760;2023-04-03T08:31:16;3.60;99.90
27384;DHT22;14851;51.166;4.760;2023-04-03T08:33:47;3.70;99.90
27384;DHT22;14851;51.166;4.760;2023-04-03T08:38:45;3.90;99.90
27384;DHT22;14851;51.166;4.760;2023-04-03T08:41:32;3.90;99.90
27384;DHT22;14851;51.166;4.760;2023-04-03T08:49:26;4.10;99.90
27384;DHT22;14851;51.166;4.760;2023-04-03T08:51:57;4.10;99.90
27384;DHT22;14851;51.166;4.760;2023-04-03T08:54:37;4.20;99.90
27384;DHT22;14851;51.166;4.760;2023-04-03T08:57:10;4.20;99.90
27384;DHT22;14851;51.166;4.760;2023-04-03T08:59:38;4.20;99.90
27384;DHT22;14851;51.166;4.760;2023-04-03T09:03:02;4.20;99.90
27384;DHT22;14851;51.166;4.760;2023-04-03T09:05:19;4.30;99.90
27384;DHT22;14851;51.166;4.760;2023-04-03T09:07:49;4.30;99.90
27384;DHT22;14851;51.166;4.760;2023-04-03T09:10:24;4.30;99.90
27384;DHT22;14851;51.166;4.760;2023-04-03T09:13:01;4.40;99.90
27384;DHT22;14851;51.166;4.760;2023-04-03T09:15:31;4.50;99.90
27384;DHT22;14851;51.166;4.760;2023-04-03T09:20:46;4.50;99.90
27384;DHT22;14851;51.166;4.760;2023-04-03T09:26:24;4.60;99.90
27384;DHT22;14851;51.166;4.760;2023-04-03T09:29:02;4.70;99.90
27384;DHT22;14851;51.166;4.760;2023-04-03T09:31:37;4.70;99.90
27384;DHT22;14851;51.166;4.760;2023-04-03T09:34:07;4.80;99.90
27384;DHT22;14851;51.166;4.760;2023-04-03T09:36:49;4.80;99.90
27384;DHT22;14851;51.166;4.760;2023-04-03T09:39:25;4.90;99.90
27384;DHT22;14851;51.166;4.760;2023-04-03T09:44:40;5.00;99.90
27384;DHT22;14851;51.166;4.760;2023-04-03T09:47:29;5.10;99.90
27384;DHT22;14851;51.166;4.760;2023-04-03T09:52:47;5.10;99.90
27384;DHT22;14851;51.166;4.760;2023-04-03T09:55:43;5.10;99.90
27384;DHT22;14851;51.166;4.760;2023-04-03T09:58:24;5.30;99.90
27384;DHT22;14851;51.166;4.760;2023-04-03T10:00:59;5.30;99.90
27384;DHT22;14851;51.166;4.760;2023-04-03T10:03:29;5.30;99.90
27384;DHT22;14851;51.166;4.760;2023-04-03T10:05:55;5.40;99.90
27384;DHT22;14851;51.166;4.760;2023-04-03T10:08:30;5.40;99.90
27384;DHT22;14851;51.166;4.760;2023-04-03T10:11:14;5.50;99.90
27384;DHT22;14851;51.166;4.760;2023-04-03T10:14:02;5.50;99.90
27384;DHT22;14851;51.166;4.760;2023-04-03T10:16:38;5.60;99.90
27384;DHT22;14851;51.166;4.760;2023-04-03T10:24:36;5.80;99.90
27384;DHT22;14851;51.166;4.760;2023-04-03T10:27:22;5.80;99.90
27384;DHT22;14851;51.166;4.760;2023-04-03T10:32:32;5.80;99.90
27384;DHT22;14851;51.166;4.760;2023-04-03T10:35:43;6.00;99.90
27384;DHT22;14851;51.166;4.760;2023-04-03T10:41:46;6.00;99.90
27384;DHT22;14851;51.166;4.760;2023-04-03T10:47:04;6.10;99.90
27384;DHT22;14851;51.166;4.760;2023-04-03T10:55:21;6.20;99.90
27384;DHT22;14851;51.166;4.760;2023-04-03T10:57:50;6.20;99.90
27384;DHT22;14851;51.166;4.760;2023-04-03T11:00:25;6.20;99.90
27384;DHT22;14851;51.166;4.760;2023-04-03T11:03:01;6.20;99.90
27384;DHT22;14851;51.166;4.760;2023-04-03T11:05:55;6.20;99.90
27384;DHT22;14851;51.166;4.760;2023-04-03T11:08:33;6.30;99.90
27384;DHT22;14851;51.166;4.760;2023-04-03T11:11:11;6.40;99.90
27384;DHT22;14851;51.166;4.760;2023-04-03T11:13:52;6.40;99.90
27384;DHT22;14851;51.166;4.760;2023-04-03T11:16:24;6.40;99.90
27384;DHT22;14851;51.166;4.760;2023-04-03T11:21:56;6.40;99.90
27384;DHT22;14851;51.166;4.760;2023-04-03T11:24:26;6.40;99.90
27384;DHT22;14851;51.166;4.760;2023-04-03T11:26:54;6.60;99.90
27384;DHT22;14851;51.166;4.760;2023-04-03T11:29:34;6.60;99.90
27384;DHT22;14851;51.166;4.760;2023-04-03T11:34:46;6.60;99.90
27384;DHT22;14851;51.166;4.760;2023-04-03T11:37:35;6.60;99.90
27384;DHT22;14851;51.166;4.760;2023-04-03T11:40:21;6.60;99.90
27384;DHT22;14851;51.166;4.760;2023-04-03T11:42:52;6.70;99.90
27384;DHT22;14851;51.166;4.760;2023-04-03T11:47:57;6.80;99.90
27384;DHT22;14851;51.166;4.760;2023-04-03T12:00:55;7.00;99.90
27384;DHT22;14851;51.166;4.760;2023-04-03T12:16:06;7.10;99.90
27384;DHT22;14851;51.166;4.760;2023-04-03T12:21:22;7.30;99.90
27384;DHT22;14851;51.166;4.760;2023-04-03T12:24:03;7.20;99.90
27384;DHT22;14851;51.166;4.760;2023-04-03T12:26:40;7.30;99.90
27384;DHT22;14851;51.166;4.760;2023-04-03T12:29:17;7.30;99.90
27384;DHT22;14851;51.166;4.760;2023-04-03T12:45:44;7.40;99.90
27384;DHT22;14851;51.166;4.760;2023-04-03T12:48:15;7.50;99.90
27384;DHT22;14851;51.166;4.760;2023-04-03T12:50:46;7.60;99.90
27384;DHT22;14851;51.166;4.760;2023-04-03T12:53:21;7.60;99.90
27384;DHT22;14851;51.166;4.760;2023-04-03T12:55:53;7.60;99.90
27384;DHT22;14851;51.166;4.760;2023-04-03T12:58:27;7.60;99.90
27384;DHT22;14851;51.166;4.760;2023-04-03T13:01:04;7.70;99.90
27384;DHT22;14851;51.166;4.760;2023-04-03T13:03:37;7.70;99.90
27384;DHT22;14851;51.166;4.760;2023-04-03T13:06:04;7.70;99.90
27384;DHT22;14851;51.166;4.760;2023-04-03T13:08:32;7.80;99.90
27384;DHT22;14851;51.166;4.760;2023-04-03T13:10:59;7.80;99.90
27384;DHT22;14851;51.166;4.760;2023-04-03T13:13:26;7.90;99.90
27384;DHT22;14851;51.166;4.760;2023-04-03T13:15:53;7.90;99.90
27384;DHT22;14851;51.166;4.760;2023-04-03T13:18:30;8.00;99.90
27384;DHT22;14851;51.166;4.760;2023-04-03T13:23:30;8.00;99.90
27384;DHT22;14851;51.166;4.760;2023-04-03T13:26:00;8.10;99.90
27384;DHT22;14851;51.166;4.760;2023-04-03T13:28:30;8.10;99.90
27384;DHT22;14851;51.166;4.760;2023-04-03T13:33:27;8.10;99.90
27384;DHT22;14851;51.166;4.760;2023-04-03T13:36:03;8.10;99.90
27384;DHT22;14851;51.166;4.760;2023-04-03T13:38:32;8.10;99.90
27384;DHT22;14851;51.166;4.760;2023-04-03T13:41:04;8.20;99.90
27384;DHT22;14851;51.166;4.760;2023-04-03T13:43:36;8.20;99.90
27384;DHT22;14851;51.166;4.760;2023-04-03T13:48:41;8.30;99.90
27384;DHT22;14851;51.166;4.760;2023-04-03T13:53:48;8.30;99.90
27384;DHT22;14851;51.166;4.760;2023-04-03T13:56:24;8.40;99.90
27384;DHT22;14851;51.166;4.760;2023-04-03T14:01:22;8.40;99.80
27384;DHT22;14851;51.166;4.760;2023-04-03T14:04:00;8.40;99.90
27384;DHT22;14851;51.166;4.760;2023-04-03T14:06:27;8.50;99.90
27384;DHT22;14851;51.166;4.760;2023-04-03T14:08:53;8.50;99.90
27384;DHT22;14851;51.166;4.760;2023-04-03T14:11:28;8.50;99.90
27384;DHT22;14851;51.166;4.760;2023-04-03T14:13:55;8.50;99.90
27384;DHT22;14851;51.166;4.760;2023-04-03T14:16:27;8.60;99.90
27384;DHT22;14851;51.166;4.760;2023-04-03T14:18:57;8.60;99.90
27384;DHT22;14851;51.166;4.760;2023-04-03T14:21:22;8.70;99.80
27384;DHT22;14851;51.166;4.760;2023-04-03T14:23:49;8.60;99.40
27384;DHT22;14851;51.166;4.760;2023-04-03T14:26:23;8.60;99.90
27384;DHT22;14851;51.166;4.760;2023-04-03T14:28:53;8.80;99.90
27384;DHT22;14851;51.166;4.760;2023-04-03T14:31:22;8.80;99.90
27384;DHT22;14851;51.166;4.760;2023-04-03T14:33:48;8.80;99.10
27384;DHT22;14851;51.166;4.760;2023-04-03T14:36:23;8.80;99.90
27384;DHT22;14851;51.166;4.760;2023-04-03T14:38:51;8.80;99.90
27384;DHT22;14851;51.166;4.760;2023-04-03T14:41:21;8.90;96.90
27384;DHT22;14851;51.166;4.760;2023-04-03T14:43:48;8.90;96.30
27384;DHT22;14851;51.166;4.760;2023-04-03T14:46:17;8.90;96.50
27384;DHT22;14851;51.166;4.760;2023-04-03T14:48:45;8.90;96.80
27384;DHT22;14851;51.166;4.760;2023-04-03T14:51:12;8.90;96.60
27384;DHT22;14851;51.166;4.760;2023-04-03T14:53:39;8.90;97.00
27384;DHT22;14851;51.166;4.760;2023-04-03T14:56:16;8.90;96.90
27384;DHT22;14851;51.166;4.760;2023-04-03T14:58:43;9.00;96.80
27384;DHT22;14851;51.166;4.760;2023-04-03T15:01:12;9.10;95.60
27384;DHT22;14851;51.166;4.760;2023-04-03T15:03:39;9.10;96.60
27384;DHT22;14851;51.166;4.760;2023-04-03T15:06:05;9.20;96.60
27384;DHT22;14851;51.166;4.760;2023-04-03T15:08:31;9.20;95.80
27384;DHT22;14851;51.166;4.760;2023-04-03T15:10:57;9.20;97.00
27384;DHT22;14851;51.166;4.760;2023-04-03T15:13:24;9.20;97.10
27384;DHT22;14851;51.166;4.760;2023-04-03T15:15:52;9.30;95.30
27384;DHT22;14851;51.166;4.760;2023-04-03T15:18:21;9.30;94.90
27384;DHT22;14851;51.166;4.760;2023-04-03T15:20:47;9.30;96.90
27384;DHT22;14851;51.166;4.760;2023-04-03T15:23:15;9.30;95.70
27384;DHT22;14851;51.166;4.760;2023-04-03T15:25:48;9.30;96.00
27384;DHT22;14851;51.166;4.760;2023-04-03T15:28:33;9.30;96.00
27384;DHT22;14851;51.166;4.760;2023-04-03T15:31:02;9.30;94.80
27384;DHT22;14851;51.166;4.760;2023-04-03T15:33:32;9.20;96.00
27384;DHT22;14851;51.166;4.760;2023-04-03T15:35:58;9.20;96.70
27384;DHT22;14851;51.166;4.760;2023-04-03T15:38:25;9.20;98.10
27384;DHT22;14851;51.166;4.760;2023-04-03T15:40:51;9.20;96.70
27384;DHT22;14851;51.166;4.760;2023-04-03T15:43:17;9.20;96.20
27384;DHT22;14851;51.166;4.760;2023-04-03T15:45:43;9.20;98.10
27384;DHT22;14851;51.166;4.760;2023-04-03T15:48:10;9.30;98.20
27384;DHT22;14851;51.166;4.760;2023-04-03T15:50:37;9.30;99.20
27384;DHT22;14851;51.166;4.760;2023-04-03T15:53:03;9.30;98.90
27384;DHT22;14851;51.166;4.760;2023-04-03T15:55:31;9.40;99.00
27384;DHT22;14851;51.166;4.760;2023-04-03T15:57:57;9.50;98.20
27384;DHT22;14851;51.166;4.760;2023-04-03T16:00:27;9.50;97.50
27384;DHT22;14851;51.166;4.760;2023-04-03T16:02:56;9.50;96.60
27384;DHT22;14851;51.166;4.760;2023-04-03T16:05:24;9.50;96.50
27384;DHT22;14851;51.166;4.760;2023-04-03T16:07:51;9.50;97.70
27384;DHT22;14851;51.166;4.760;2023-04-03T16:10:18;9.50;97.40
27384;DHT22;14851;51.166;4.760;2023-04-03T16:12:44;9.50;97.00
27384;DHT22;14851;51.166;4.760;2023-04-03T16:15:12;9.50;95.70
27384;DHT22;14851;51.166;4.760;2023-04-03T16:17:39;9.50;97.20
27384;DHT22;14851;51.166;4.760;2023-04-03T16:20:07;9.50;97.20
27384;DHT22;14851;51.166;4.760;2023-04-03T16:22:34;9.60;97.50
27384;DHT22;14851;51.166;4.760;2023-04-03T16:25:00;9.60;98.90
27384;DHT22;14851;51.166;4.760;2023-04-03T16:27:28;9.50;97.40
27384;DHT22;14851;51.166;4.760;2023-04-03T16:29:58;9.50;97.20
27384;DHT22;14851;51.166;4.760;2023-04-03T16:32:27;9.50;97.80
27384;DHT22;14851;51.166;4.760;2023-04-03T16:34:54;9.40;98.40
27384;DHT22;14851;51.166;4.760;2023-04-03T16:37:20;9.40;96.40
27384;DHT22;14851;51.166;4.760;2023-04-03T16:39:46;9.40;98.20
27384;DHT22;14851;51.166;4.760;2023-04-03T16:42:14;9.40;97.70
27384;DHT22;14851;51.166;4.760;2023-04-03T16:44:41;9.30;98.50
27384;DHT22;14851;51.166;4.760;2023-04-03T16:47:07;9.30;96.80
27384;DHT22;14851;51.166;4.760;2023-04-03T16:49:34;9.30;96.70
27384;DHT22;14851;51.166;4.760;2023-04-03T16:52:01;9.20;98.00
27384;DHT22;14851;51.166;4.760;2023-04-03T16:54:30;9.20;98.90
27384;DHT22;14851;51.166;4.760;2023-04-03T16:56:56;9.20;98.00
27384;DHT22;14851;51.166;4.760;2023-04-03T16:59:22;9.20;97.80
27384;DHT22;14851;51.166;4.760;2023-04-03T17:01:51;9.10;97.80
27384;DHT22;14851;51.166;4.760;2023-04-03T17:04:16;9.10;98.50
27384;DHT22;14851;51.166;4.760;2023-04-03T17:06:42;9.00;98.80
27384;DHT22;14851;51.166;4.760;2023-04-03T17:09:08;9.10;98.90
27384;DHT22;14851;51.166;4.760;2023-04-03T17:11:40;9.00;98.00
27384;DHT22;14851;51.166;4.760;2023-04-03T17:14:06;9.00;98.30
27384;DHT22;14851;51.166;4.760;2023-04-03T17:16:34;9.00;98.30
27384;DHT22;14851;51.166;4.760;2023-04-03T17:19:03;9.00;98.90
27384;DHT22;14851;51.166;4.760;2023-04-03T17:21:32;8.90;99.20
27384;DHT22;14851;51.166;4.760;2023-04-03T17:24:03;8.90;99.50
27384;DHT22;14851;51.166;4.760;2023-04-03T17:26:32;8.80;98.60
27384;DHT22;14851;51.166;4.760;2023-04-03T17:28:58;8.80;98.70
27384;DHT22;14851;51.166;4.760;2023-04-03T17:31:24;8.80;97.80
27384;DHT22;14851;51.166;4.760;2023-04-03T17:33:50;8.80;97.70
27384;DHT22;14851;51.166;4.760;2023-04-03T17:36:16;8.80;97.60
27384;DHT22;14851;51.166;4.760;2023-04-03T17:38:41;8.70;99.30
27384;DHT22;14851;51.166;4.760;2023-04-03T17:41:13;8.70;98.90
27384;DHT22;14851;51.166;4.760;2023-04-03T17:43:39;8.60;98.60
27384;DHT22;14851;51.166;4.760;2023-04-03T17:46:08;8.60;99.10
27384;DHT22;14851;51.166;4.760;2023-04-03T17:48:39;8.50;99.90
27384;DHT22;14851;51.166;4.760;2023-04-03T17:51:08;8.50;99.90
27384;DHT22;14851;51.166;4.760;2023-04-03T17:53:34;8.40;99.40
27384;DHT22;14851;51.166;4.760;2023-04-03T17:56:11;8.40;99.80
27384;DHT22;14851;51.166;4.760;2023-04-03T17:58:37;8.40;99.90
27384;DHT22;14851;51.166;4.760;2023-04-03T18:01:15;8.50;99.90